sensor_id;sensor_type;location;lat;lon;timestamp;P1;durP1;ratioP1;P2;durP2;ratioP2
3006;SDS011;1513;47.650;10.720;2023-05-10T00:01:15;0.30;;;0.30;;
3006;SDS011;1513;47.650;10.720;2023-05-10T00:03:41;0.40;;;0.30;;
3006;SDS011;1513;47.650;10.720;2023-05-10T00:06:08;0.40;;;0.33;;
3006;SDS011;1513;47.650;10.720;2023-05-10T00:08:35;1.37;;;0.40;;
3006;SDS011;1513;47.650;10.720;2023-05-10T00:11:01;0.40;;;0.40;;
3006;SDS011;1513;47.650;10.720;2023-05-10T00:13:27;0.30;;;0.30;;
3006;SDS011;1513;47.650;10.720;2023-05-10T00:15:54;0.63;;;0.30;;
3006;SDS011;1513;47.650;10.720;2023-05-10T00:18:20;1.10;;;0.50;;
3006;SDS011;1513;47.650;10.720;2023-05-10T00:20:47;0.40;;;0.40;;
3006;SDS011;1513;47.650;10.720;2023-05-10T00:23:14;0.50;;;0.40;;
3006;SDS011;1513;47.650;10.720;2023-05-10T00:25:40;0.40;;;0.30;;
3006;SDS011;1513;47.650;10.720;2023-05-10T00:28:06;0.40;;;0.40;;
3006;SDS011;1513;47.650;10.720;2023-05-10T00:30:32;2.30;;;0.60;;
3006;SDS011;1513;47.650;10.720;2023-05-10T00:33:00;0.40;;;0.30;;
3006;SDS011;1513;47.650;10.720;2023-05-10T00:35:26;0.90;;;0.50;;
3006;SDS011;1513;47.650;10.720;2023-05-10T00:37:53;0.40;;;0.30;;
3006;SDS011;1513;47.650;10.720;2023-05-10T00:40:19;0.73;;;0.40;;
3006;SDS011;1513;47.650;10.720;2023-05-10T00:42:50;1.43;;;0.40;;
3006;SDS011;1513;47.650;10.720;2023-05-10T00:45:16;1.53;;;0.30;;
3006;SDS011;1513;47.650;10.720;2023-05-10T00:47:43;0.40;;;0.40;;
3006;SDS011;1513;47.650;10.720;2023-05-10T00:50:09;0.30;;;0.30;;
3006;SDS011;1513;47.650;10.720;2023-05-10T00:52:36;0.77;;;0.37;;
3006;SDS011;1513;47.650;10.720;2023-05-10T00:55:02;0.50;;;0.30;;
3006;SDS011;1513;47.650;10.720;2023-05-10T00:57:30;0.40;;;0.30;;
3006;SDS011;1513;47.650;10.720;2023-05-10T00:59:56;0.40;;;0.33;;
3006;SDS011;1513;47.650;10.720;2023-05-10T01:02:23;0.40;;;0.40;;
3006;SDS011;1513;47.650;10.720;2023-05-10T01:04:50;0.40;;;0.40;;
3006;SDS011;1513;47.650;10.720;2023-05-10T01:07:17;0.40;;;0.30;;
3006;SDS011;1513;47.650;10.720;2023-05-10T01:09:43;0.40;;;0.40;;
3006;SDS011;1513;47.650;10.720;2023-05-10T01:12:10;0.40;;;0.30;;
3006;SDS011;1513;47.650;10.720;2023-05-10T01:14:37;0.40;;;0.33;;
3006;SDS011;1513;47.650;10.720;2023-05-10T01:17:04;0.40;;;0.37;;
3006;SDS011;1513;47.650;10.720;2023-05-10T01:19:31;0.40;;;0.37;;
3006;SDS011;1513;47.650;10.720;2023-05-10T01:33:35;0.47;;;0.47;;
3006;SDS011;1513;47.650;10.720;2023-05-10T01:36:31;0.50;;;0.50;;
3006;SDS011;1513;47.650;10.720;2023-05-10T01:44:20;0.40;;;0.30;;
3006;SDS011;1513;47.650;10.720;2023-05-10T01:46:57;0.37;;;0.30;;
3006;SDS011;1513;47.650;10.720;2023-05-10T01:49:37;0.50;;;0.50;;
3006;SDS011;1513;47.650;10.720;2023-05-10T01:52:14;0.50;;;0.50;;
3006;SDS011;1513;47.650;10.720;2023-05-10T01:54:49;0.40;;;0.37;;
3006;SDS011;1513;47.650;10.720;2023-05-10T01:57:25;0.40;;;0.40;;
3006;SDS011;1513;47.650;10.720;2023-05-10T01:59:53;0.70;;;0.60;;
3006;SDS011;1513;47.650;10.720;2023-05-10T02:02:20;0.50;;;0.50;;
3006;SDS011;1513;47.650;10.720;2023-05-10T02:04:47;1.37;;;0.90;;
3006;SDS011;1513;47.650;10.720;2023-05-10T02:07:15;0.90;;;0.70;;
3006;SDS011;1513;47.650;10.720;2023-05-10T02:09:43;0.70;;;0.70;;
3006;SDS011;1513;47.650;10.720;2023-05-10T02:12:14;0.70;;;0.70;;
3006;SDS011;1513;47.650;10.720;2023-05-10T02:14:42;0.73;;;0.53;;
3006;SDS011;1513;47.650;10.720;2023-05-10T02:17:08;4.10;;;0.60;;
3006;SDS011;1513;47.650;10.720;2023-05-10T02:19:39;0.33;;;0.30;;
3006;SDS011;1513;47.650;10.720;2023-05-10T02:22:07;0.60;;;0.30;;
3006;SDS011;1513;47.650;10.720;2023-05-10T02:24:34;0.70;;;0.43;;
3006;SDS011;1513;47.650;10.720;2023-05-10T02:27:02;0.40;;;0.30;;
3006;SDS011;1513;47.650;10.720;2023-05-10T02:29:29;0.70;;;0.40;;
3006;SDS011;1513;47.650;10.720;2023-05-10T02:31:57;0.70;;;0.30;;
3006;SDS011;1513;47.650;10.720;2023-05-10T02:34:25;0.40;;;0.30;;
3006;SDS011;1513;47.650;10.720;2023-05-10T02:36:52;0.43;;;0.40;;
3006;SDS011;1513;47.650;10.720;2023-05-10T02:39:18;0.40;;;0.40;;
3006;SDS011;1513;47.650;10.720;2023-05-10T02:41:46;0.50;;;0.40;;
3006;SDS011;1513;47.650;10.720;2023-05-10T02:44:15;0.50;;;0.40;;
3006;SDS011;1513;47.650;10.720;2023-05-10T02:46:43;0.40;;;0.30;;
3006;SDS011;1513;47.650;10.720;2023-05-10T02:49:09;0.30;;;0.30;;
3006;SDS011;1513;47.650;10.720;2023-05-10T02:51:36;0.30;;;0.30;;
3006;SDS011;1513;47.650;10.720;2023-05-10T02:54:11;0.40;;;0.40;;
3006;SDS011;1513;47.650;10.720;2023-05-10T02:56:42;1.53;;;0.30;;
3006;SDS011;1513;47.650;10.720;2023-05-10T02:59:12;0.30;;;0.30;;
3006;SDS011;1513;47.650;10.720;2023-05-10T03:01:38;0.40;;;0.33;;
3006;SDS011;1513;47.650;10.720;2023-05-10T03:04:05;0.40;;;0.30;;
3006;SDS011;1513;47.650;10.720;2023-05-10T03:06:32;0.40;;;0.30;;
3006;SDS011;1513;47.650;10.720;2023-05-10T03:08:58;0.40;;;0.30;;
3006;SDS011;1513;47.650;10.720;2023-05-10T03:11:32;0.40;;;0.30;;
3006;SDS011;1513;47.650;10.720;2023-05-10T03:19:50;0.40;;;0.30;;
3006;SDS011;1513;47.650;10.720;2023-05-10T03:22:26;0.40;;;0.40;;
3006;SDS011;1513;47.650;10.720;2023-05-10T03:24:58;0.40;;;0.40;;
3006;SDS011;1513;47.650;10.720;2023-05-10T03:27:28;0.30;;;0.30;;
3006;SDS011;1513;47.650;10.720;2023-05-10T03:29:55;0.30;;;0.30;;
3006;SDS011;1513;47.650;10.720;2023-05-10T03:32:22;0.90;;;0.30;;
3006;SDS011;1513;47.650;10.720;2023-05-10T03:34:49;0.40;;;0.30;;
3006;SDS011;1513;47.650;10.720;2023-05-10T03:37:15;0.70;;;0.40;;
3006;SDS011;1513;47.650;10.720;2023-05-10T03:39:41;0.40;;;0.30;;
3006;SDS011;1513;47.650;10.720;2023-05-10T03:42:09;0.40;;;0.30;;
3006;SDS011;1513;47.650;10.720;2023-05-10T03:44:38;0.40;;;0.30;;
3006;SDS011;1513;47.650;10.720;2023-05-10T03:47:04;0.40;;;0.30;;
3006;SDS011;1513;47.650;10.720;2023-05-10T03:49:31;0.40;;;0.30;;
3006;SDS011;1513;47.650;10.720;2023-05-10T03:51:58;0.40;;;0.30;;
3006;SDS011;1513;47.650;10.720;2023-05-10T03:54:24;1.03;;;0.30;;
3006;SDS011;1513;47.650;10.720;2023-05-10T03:56:51;0.40;;;0.30;;
3006;SDS011;1513;47.650;10.720;2023-05-10T03:59:18;0.30;;;0.30;;
3006;SDS011;1513;47.650;10.720;2023-05-10T04:01:45;0.40;;;0.30;;
3006;SDS011;1513;47.650;10.720;2023-05-10T04:04:11;0.50;;;0.40;;
3006;SDS011;1513;47.650;10.720;2023-05-10T04:06:37;0.60;;;0.40;;
3006;SDS011;1513;47.650;10.720;2023-05-10T04:09:04;0.53;;;0.30;;
3006;SDS011;1513;47.650;10.720;2023-05-10T04:11:30;0.30;;;0.30;;
3006;SDS011;1513;47.650;10.720;2023-05-10T04:13:56;0.50;;;0.33;;
3006;SDS011;1513;47.650;10.720;2023-05-10T04:16:23;0.40;;;0.30;;
3006;SDS011;1513;47.650;10.720;2023-05-10T04:18:49;0.53;;;0.30;;
3006;SDS011;1513;47.650;10.720;2023-05-10T04:21:15;0.40;;;0.30;;
3006;SDS011;1513;47.650;10.720;2023-05-10T04:23:41;0.40;;;0.40;;
3006;SDS011;1513;47.650;10.720;2023-05-10T04:26:08;0.37;;;0.30;;
3006;SDS011;1513;47.650;10.720;2023-05-10T04:28:35;0.40;;;0.30;;
3006;SDS011;1513;47.650;10.720;2023-05-10T04:33:28;0.67;;;0.30;;
3006;SDS011;1513;47.650;10.720;2023-05-10T04:35:54;1.23;;;0.40;;
3006;SDS011;1513;47.650;10.720;2023-05-10T04:38:20;0.50;;;0.30;;
3006;SDS011;1513;47.650;10.720;2023-05-10T04:40:47;0.40;;;0.30;;
3006;SDS011;1513;47.650;10.720;2023-05-10T04:43:13;0.30;;;0.27;;
3006;SDS011;1513;47.650;10.720;2023-05-10T04:45:39;0.60;;;0.60;;
3006;SDS011;1513;47.650;10.720;2023-05-10T04:48:05;0.70;;;0.40;;
3006;SDS011;1513;47.650;10.720;2023-05-10T04:50:32;0.80;;;0.40;;
3006;SDS011;1513;47.650;10.720;2023-05-10T04:52:58;0.30;;;0.30;;
3006;SDS011;1513;47.650;10.720;2023-05-10T04:55:25;0.40;;;0.30;;
3006;SDS011;1513;47.650;10.720;2023-05-10T04:57:52;0.50;;;0.30;;
3006;SDS011;1513;47.650;10.720;2023-05-10T05:00:20;0.40;;;0.30;;
3006;SDS011;1513;47.650;10.720;2023-05-10T05:02:47;0.80;;;0.40;;
3006;SDS011;1513;47.650;10.720;2023-05-10T05:05:13;0.73;;;0.30;;
3006;SDS011;1513;47.650;10.720;2023-05-10T05:07:40;2.50;;;0.40;;
3006;SDS011;1513;47.650;10.720;2023-05-10T05:10:07;1.67;;;0.57;;
3006;SDS011;1513;47.650;10.720;2023-05-10T05:12:33;0.40;;;0.30;;
3006;SDS011;1513;47.650;10.720;2023-05-10T05:15:00;2.00;;;0.30;;
3006;SDS011;1513;47.650;10.720;2023-05-10T05:17:27;0.40;;;0.30;;
3006;SDS011;1513;47.650;10.720;2023-05-10T05:19:56;0.47;;;0.47;;
3006;SDS011;1513;47.650;10.720;2023-05-10T05:22:22;0.40;;;0.30;;
3006;SDS011;1513;47.650;10.720;2023-05-10T05:24:55;0.40;;;0.40;;
3006;SDS011;1513;47.650;10.720;2023-05-10T05:27:23;0.50;;;0.40;;
3006;SDS011;1513;47.650;10.720;2023-05-10T05:29:55;1.00;;;0.60;;
3006;SDS011;1513;47.650;10.720;2023-05-10T05:32:21;0.53;;;0.53;;
3006;SDS011;1513;47.650;10.720;2023-05-10T05:34:48;2.20;;;0.50;;
3006;SDS011;1513;47.650;10.720;2023-05-10T05:37:15;2.60;;;0.93;;
3006;SDS011;1513;47.650;10.720;2023-05-10T05:39:43;0.40;;;0.40;;
3006;SDS011;1513;47.650;10.720;2023-05-10T05:42:10;1.23;;;0.40;;
3006;SDS011;1513;47.650;10.720;2023-05-10T05:44:37;0.50;;;0.50;;
3006;SDS011;1513;47.650;10.720;2023-05-10T05:47:04;2.93;;;0.50;;
3006;SDS011;1513;47.650;10.720;2023-05-10T05:49:30;0.50;;;0.30;;
3006;SDS011;1513;47.650;10.720;2023-05-10T05:52:00;0.40;;;0.40;;
3006;SDS011;1513;47.650;10.720;2023-05-10T05:54:28;0.60;;;0.40;;
3006;SDS011;1513;47.650;10.720;2023-05-10T05:56:55;0.50;;;0.50;;
3006;SDS011;1513;47.650;10.720;2023-05-10T05:59:24;0.60;;;0.50;;
3006;SDS011;1513;47.650;10.720;2023-05-10T06:01:50;0.60;;;0.40;;
3006;SDS011;1513;47.650;10.720;2023-05-10T06:04:17;1.00;;;0.50;;
3006;SDS011;1513;47.650;10.720;2023-05-10T06:06:43;3.43;;;0.47;;
3006;SDS011;1513;47.650;10.720;2023-05-10T06:09:09;1.27;;;0.47;;
3006;SDS011;1513;47.650;10.720;2023-05-10T06:11:37;0.70;;;0.40;;
3006;SDS011;1513;47.650;10.720;2023-05-10T06:14:04;0.40;;;0.40;;
3006;SDS011;1513;47.650;10.720;2023-05-10T06:16:32;0.90;;;0.40;;
3006;SDS011;1513;47.650;10.720;2023-05-10T06:18:59;0.87;;;0.40;;
3006;SDS011;1513;47.650;10.720;2023-05-10T06:21:25;0.40;;;0.40;;
3006;SDS011;1513;47.650;10.720;2023-05-10T06:23:51;0.90;;;0.63;;
3006;SDS011;1513;47.650;10.720;2023-05-10T06:26:18;1.13;;;0.50;;
3006;SDS011;1513;47.650;10.720;2023-05-10T06:28:44;0.53;;;0.47;;
3006;SDS011;1513;47.650;10.720;2023-05-10T06:31:10;0.40;;;0.40;;
3006;SDS011;1513;47.650;10.720;2023-05-10T06:33:37;4.10;;;0.40;;
3006;SDS011;1513;47.650;10.720;2023-05-10T06:36:03;0.63;;;0.63;;
3006;SDS011;1513;47.650;10.720;2023-05-10T06:38:30;0.67;;;0.67;;
3006;SDS011;1513;47.650;10.720;2023-05-10T06:40:56;0.50;;;0.50;;
3006;SDS011;1513;47.650;10.720;2023-05-10T06:43:22;0.50;;;0.50;;
3006;SDS011;1513;47.650;10.720;2023-05-10T06:45:49;0.50;;;0.50;;
3006;SDS011;1513;47.650;10.720;2023-05-10T06:48:16;0.50;;;0.47;;
3006;SDS011;1513;47.650;10.720;2023-05-10T06:50:43;0.90;;;0.37;;
3006;SDS011;1513;47.650;10.720;2023-05-10T06:53:09;0.40;;;0.30;;
3006;SDS011;1513;47.650;10.720;2023-05-10T06:55:37;1.83;;;0.43;;
3006;SDS011;1513;47.650;10.720;2023-05-10T06:58:03;0.60;;;0.30;;
3006;SDS011;1513;47.650;10.720;2023-05-10T07:00:29;1.07;;;0.50;;
3006;SDS011;1513;47.650;10.720;2023-05-10T07:02:56;0.60;;;0.60;;
3006;SDS011;1513;47.650;10.720;2023-05-10T07:05:22;0.90;;;0.47;;
3006;SDS011;1513;47.650;10.720;2023-05-10T07:07:48;0.50;;;0.50;;
3006;SDS011;1513;47.650;10.720;2023-05-10T07:10:14;0.57;;;0.50;;
3006;SDS011;1513;47.650;10.720;2023-05-10T07:12:41;0.77;;;0.60;;
3006;SDS011;1513;47.650;10.720;2023-05-10T07:15:07;0.60;;;0.50;;
3006;SDS011;1513;47.650;10.720;2023-05-10T07:17:34;1.17;;;0.70;;
3006;SDS011;1513;47.650;10.720;2023-05-10T07:20:00;0.83;;;0.80;;
3006;SDS011;1513;47.650;10.720;2023-05-10T07:22:28;0.57;;;0.57;;
3006;SDS011;1513;47.650;10.720;2023-05-10T07:24:55;0.80;;;0.80;;
3006;SDS011;1513;47.650;10.720;2023-05-10T07:27:21;0.60;;;0.50;;
3006;SDS011;1513;47.650;10.720;2023-05-10T07:29:47;1.53;;;0.80;;
3006;SDS011;1513;47.650;10.720;2023-05-10T07:32:14;0.70;;;0.70;;
3006;SDS011;1513;47.650;10.720;2023-05-10T07:34:40;0.50;;;0.50;;
3006;SDS011;1513;47.650;10.720;2023-05-10T07:37:06;0.60;;;0.60;;
3006;SDS011;1513;47.650;10.720;2023-05-10T07:39:32;2.00;;;0.80;;
3006;SDS011;1513;47.650;10.720;2023-05-10T07:41:59;1.07;;;0.80;;
3006;SDS011;1513;47.650;10.720;2023-05-10T07:44:25;0.77;;;0.77;;
3006;SDS011;1513;47.650;10.720;2023-05-10T07:46:51;0.90;;;0.90;;
3006;SDS011;1513;47.650;10.720;2023-05-10T07:49:17;2.70;;;0.80;;
3006;SDS011;1513;47.650;10.720;2023-05-10T07:51:44;1.00;;;1.00;;
3006;SDS011;1513;47.650;10.720;2023-05-10T07:54:10;1.00;;;1.00;;
3006;SDS011;1513;47.650;10.720;2023-05-10T07:56:38;1.17;;;1.07;;
3006;SDS011;1513;47.650;10.720;2023-05-10T07:59:04;1.63;;;0.80;;
3006;SDS011;1513;47.650;10.720;2023-05-10T08:01:32;1.10;;;1.00;;
3006;SDS011;1513;47.650;10.720;2023-05-10T08:03:59;1.00;;;0.90;;
3006;SDS011;1513;47.650;10.720;2023-05-10T08:06:27;0.70;;;0.70;;
3006;SDS011;1513;47.650;10.720;2023-05-10T08:08:55;0.77;;;0.77;;
3006;SDS011;1513;47.650;10.720;2023-05-10T08:11:21;0.80;;;0.80;;
3006;SDS011;1513;47.650;10.720;2023-05-10T08:13:48;1.20;;;0.70;;
3006;SDS011;1513;47.650;10.720;2023-05-10T08:16:16;0.73;;;0.73;;
3006;SDS011;1513;47.650;10.720;2023-05-10T08:18:43;0.80;;;0.60;;
3006;SDS011;1513;47.650;10.720;2023-05-10T08:21:10;0.50;;;0.40;;
3006;SDS011;1513;47.650;10.720;2023-05-10T08:23:36;1.90;;;0.60;;
3006;SDS011;1513;47.650;10.720;2023-05-10T08:26:03;1.70;;;0.50;;
3006;SDS011;1513;47.650;10.720;2023-05-10T08:28:29;0.60;;;0.60;;
3006;SDS011;1513;47.650;10.720;2023-05-10T08:30:55;0.60;;;0.60;;
3006;SDS011;1513;47.650;10.720;2023-05-10T08:33:22;0.87;;;0.60;;
3006;SDS011;1513;47.650;10.720;2023-05-10T08:35:48;1.30;;;1.20;;
3006;SDS011;1513;47.650;10.720;2023-05-10T08:38:14;2.33;;;1.10;;
3006;SDS011;1513;47.650;10.720;2023-05-10T08:40:41;0.97;;;0.80;;
3006;SDS011;1513;47.650;10.720;2023-05-10T08:43:09;1.93;;;0.73;;
3006;SDS011;1513;47.650;10.720;2023-05-10T08:45:37;0.63;;;0.63;;
3006;SDS011;1513;47.650;10.720;2023-05-10T08:48:04;1.00;;;0.90;;
3006;SDS011;1513;47.650;10.720;2023-05-10T08:50:40;2.00;;;0.77;;
3006;SDS011;1513;47.650;10.720;2023-05-10T08:53:10;1.80;;;1.07;;
3006;SDS011;1513;47.650;10.720;2023-05-10T08:55:38;0.93;;;0.87;;
3006;SDS011;1513;47.650;10.720;2023-05-10T08:58:07;1.03;;;0.87;;
3006;SDS011;1513;47.650;10.720;2023-05-10T09:00:34;0.80;;;0.80;;
3006;SDS011;1513;47.650;10.720;2023-05-10T09:03:02;0.70;;;0.70;;
3006;SDS011;1513;47.650;10.720;2023-05-10T09:05:29;0.70;;;0.70;;
3006;SDS011;1513;47.650;10.720;2023-05-10T09:07:56;0.70;;;0.70;;
3006;SDS011;1513;47.650;10.720;2023-05-10T09:10:22;0.70;;;0.70;;
3006;SDS011;1513;47.650;10.720;2023-05-10T09:12:51;0.60;;;0.57;;
3006;SDS011;1513;47.650;10.720;2023-05-10T09:15:18;0.70;;;0.60;;
3006;SDS011;1513;47.650;10.720;2023-05-10T09:17:45;0.90;;;0.80;;
3006;SDS011;1513;47.650;10.720;2023-05-10T09:20:11;1.53;;;0.80;;
3006;SDS011;1513;47.650;10.720;2023-05-10T09:22:38;1.20;;;0.80;;
3006;SDS011;1513;47.650;10.720;2023-05-10T09:25:08;1.63;;;1.10;;
3006;SDS011;1513;47.650;10.720;2023-05-10T09:27:36;1.00;;;0.83;;
3006;SDS011;1513;47.650;10.720;2023-05-10T09:30:04;1.37;;;1.00;;
3006;SDS011;1513;47.650;10.720;2023-05-10T09:32:41;1.33;;;1.10;;
3006;SDS011;1513;47.650;10.720;2023-05-10T09:35:16;2.43;;;1.47;;
3006;SDS011;1513;47.650;10.720;2023-05-10T09:37:44;2.37;;;1.50;;
3006;SDS011;1513;47.650;10.720;2023-05-10T09:40:16;1.10;;;1.00;;
3006;SDS011;1513;47.650;10.720;2023-05-10T09:42:51;2.00;;;1.50;;
3006;SDS011;1513;47.650;10.720;2023-05-10T09:45:17;2.93;;;1.97;;
3006;SDS011;1513;47.650;10.720;2023-05-10T09:47:43;1.80;;;1.67;;
3006;SDS011;1513;47.650;10.720;2023-05-10T09:50:11;1.57;;;1.43;;
3006;SDS011;1513;47.650;10.720;2023-05-10T09:52:47;2.70;;;2.00;;
3006;SDS011;1513;47.650;10.720;2023-05-10T09:55:18;1.97;;;1.80;;
3006;SDS011;1513;47.650;10.720;2023-05-10T09:57:45;1.80;;;1.50;;
3006;SDS011;1513;47.650;10.720;2023-05-10T10:00:19;4.47;;;1.63;;
3006;SDS011;1513;47.650;10.720;2023-05-10T10:02:47;1.33;;;1.23;;
3006;SDS011;1513;47.650;10.720;2023-05-10T10:05:20;1.47;;;1.10;;
3006;SDS011;1513;47.650;10.720;2023-05-10T10:07:53;1.30;;;1.10;;
3006;SDS011;1513;47.650;10.720;2023-05-10T10:10:19;4.63;;;1.40;;
3006;SDS011;1513;47.650;10.720;2023-05-10T10:12:45;1.63;;;1.20;;
3006;SDS011;1513;47.650;10.720;2023-05-10T10:15:12;3.23;;;1.20;;
3006;SDS011;1513;47.650;10.720;2023-05-10T10:17:38;1.17;;;1.17;;
3006;SDS011;1513;47.650;10.720;2023-05-10T10:20:06;2.40;;;1.27;;
3006;SDS011;1513;47.650;10.720;2023-05-10T10:22:32;3.07;;;0.93;;
3006;SDS011;1513;47.650;10.720;2023-05-10T10:24:59;0.80;;;0.80;;
3006;SDS011;1513;47.650;10.720;2023-05-10T10:27:33;0.93;;;0.93;;
3006;SDS011;1513;47.650;10.720;2023-05-10T10:30:18;2.83;;;1.00;;
3006;SDS011;1513;47.650;10.720;2023-05-10T10:33:06;1.03;;;1.03;;
3006;SDS011;1513;47.650;10.720;2023-05-10T10:35:53;1.57;;;1.30;;
3006;SDS011;1513;47.650;10.720;2023-05-10T10:38:21;1.20;;;1.10;;
3006;SDS011;1513;47.650;10.720;2023-05-10T10:40:48;0.80;;;0.80;;
3006;SDS011;1513;47.650;10.720;2023-05-10T10:43:24;1.27;;;1.17;;
3006;SDS011;1513;47.650;10.720;2023-05-10T10:48:41;1.03;;;1.03;;
3006;SDS011;1513;47.650;10.720;2023-05-10T10:51:14;0.93;;;0.93;;
3006;SDS011;1513;47.650;10.720;2023-05-10T10:53:41;4.60;;;1.77;;
3006;SDS011;1513;47.650;10.720;2023-05-10T10:56:11;1.70;;;1.60;;
3006;SDS011;1513;47.650;10.720;2023-05-10T10:58:38;0.90;;;0.90;;
3006;SDS011;1513;47.650;10.720;2023-05-10T11:01:14;0.80;;;0.80;;
3006;SDS011;1513;47.650;10.720;2023-05-10T11:04:16;0.60;;;0.60;;
3006;SDS011;1513;47.650;10.720;2023-05-10T11:06:40;0.80;;;0.80;;
3006;SDS011;1513;47.650;10.720;2023-05-10T11:09:09;1.73;;;0.80;;
3006;SDS011;1513;47.650;10.720;2023-05-10T11:11:48;1.77;;;0.90;;
3006;SDS011;1513;47.650;10.720;2023-05-10T11:14:18;1.10;;;1.00;;
3006;SDS011;1513;47.650;10.720;2023-05-10T11:16:46;0.90;;;0.90;;
3006;SDS011;1513;47.650;10.720;2023-05-10T11:19:16;0.90;;;0.90;;
3006;SDS011;1513;47.650;10.720;2023-05-10T11:21:50;0.77;;;0.77;;
3006;SDS011;1513;47.650;10.720;2023-05-10T11:24:20;0.97;;;0.97;;
3006;SDS011;1513;47.650;10.720;2023-05-10T11:26:49;1.20;;;1.10;;
3006;SDS011;1513;47.650;10.720;2023-05-10T11:29:18;1.17;;;1.07;;
3006;SDS011;1513;47.650;10.720;2023-05-10T11:31:45;1.43;;;1.20;;
3006;SDS011;1513;47.650;10.720;2023-05-10T11:34:33;1.77;;;1.67;;
3006;SDS011;1513;47.650;10.720;2023-05-10T11:36:59;2.03;;;1.60;;
3006;SDS011;1513;47.650;10.720;2023-05-10T11:39:26;6.07;;;4.10;;
3006;SDS011;1513;47.650;10.720;2023-05-10T11:41:56;8.97;;;5.80;;
3006;SDS011;1513;47.650;10.720;2023-05-10T11:44:23;5.13;;;4.10;;
3006;SDS011;1513;47.650;10.720;2023-05-10T11:46:54;4.07;;;2.50;;
3006;SDS011;1513;47.650;10.720;2023-05-10T11:49:25;8.50;;;4.30;;
3006;SDS011;1513;47.650;10.720;2023-05-10T11:51:51;4.67;;;3.30;;
3006;SDS011;1513;47.650;10.720;2023-05-10T11:54:18;2.60;;;1.80;;
3006;SDS011;1513;47.650;10.720;2023-05-10T11:56:44;2.23;;;1.87;;
3006;SDS011;1513;47.650;10.720;2023-05-10T11:59:10;2.30;;;2.10;;
3006;SDS011;1513;47.650;10.720;2023-05-10T12:01:41;8.90;;;5.90;;
3006;SDS011;1513;47.650;10.720;2023-05-10T12:04:07;5.07;;;4.53;;
3006;SDS011;1513;47.650;10.720;2023-05-10T12:06:36;4.80;;;2.60;;
3006;SDS011;1513;47.650;10.720;2023-05-10T12:09:06;3.90;;;2.07;;
3006;SDS011;1513;47.650;10.720;2023-05-10T12:11:35;1.97;;;1.83;;
3006;SDS011;1513;47.650;10.720;2023-05-10T12:14:04;1.40;;;1.30;;
3006;SDS011;1513;47.650;10.720;2023-05-10T12:16:31;1.10;;;1.10;;
3006;SDS011;1513;47.650;10.720;2023-05-10T12:18:58;1.80;;;1.10;;
3006;SDS011;1513;47.650;10.720;2023-05-10T12:21:25;1.33;;;1.20;;
3006;SDS011;1513;47.650;10.720;2023-05-10T12:23:59;1.80;;;1.27;;
3006;SDS011;1513;47.650;10.720;2023-05-10T12:26:30;1.50;;;1.40;;
3006;SDS011;1513;47.650;10.720;2023-05-10T12:29:16;1.60;;;1.30;;
3006;SDS011;1513;47.650;10.720;2023-05-10T12:31:50;1.23;;;1.20;;
3006;SDS011;1513;47.650;10.720;2023-05-10T12:36:58;1.57;;;1.47;;
3006;SDS011;1513;47.650;10.720;2023-05-10T12:39:25;1.03;;;1.00;;
3006;SDS011;1513;47.650;10.720;2023-05-10T12:41:51;1.60;;;1.40;;
3006;SDS011;1513;47.650;10.720;2023-05-10T12:44:18;2.00;;;1.10;;
3006;SDS011;1513;47.650;10.720;2023-05-10T12:46:44;1.43;;;1.40;;
3006;SDS011;1513;47.650;10.720;2023-05-10T12:49:10;1.37;;;1.27;;
3006;SDS011;1513;47.650;10.720;2023-05-10T12:51:37;3.93;;;1.30;;
3006;SDS011;1513;47.650;10.720;2023-05-10T12:54:03;2.07;;;1.37;;
3006;SDS011;1513;47.650;10.720;2023-05-10T12:56:30;1.70;;;1.60;;
3006;SDS011;1513;47.650;10.720;2023-05-10T12:58:57;1.53;;;1.43;;
3006;SDS011;1513;47.650;10.720;2023-05-10T13:01:23;5.03;;;1.73;;
3006;SDS011;1513;47.650;10.720;2023-05-10T13:03:49;5.50;;;1.70;;
3006;SDS011;1513;47.650;10.720;2023-05-10T13:06:15;2.23;;;2.13;;
3006;SDS011;1513;47.650;10.720;2023-05-10T13:08:42;3.40;;;1.77;;
3006;SDS011;1513;47.650;10.720;2023-05-10T13:11:08;1.70;;;1.43;;
3006;SDS011;1513;47.650;10.720;2023-05-10T13:13:34;1.60;;;1.50;;
3006;SDS011;1513;47.650;10.720;2023-05-10T13:16:01;7.17;;;1.33;;
3006;SDS011;1513;47.650;10.720;2023-05-10T13:18:27;2.10;;;1.60;;
3006;SDS011;1513;47.650;10.720;2023-05-10T13:20:53;3.20;;;2.17;;
3006;SDS011;1513;47.650;10.720;2023-05-10T13:23:21;1.60;;;1.50;;
3006;SDS011;1513;47.650;10.720;2023-05-10T13:25:47;2.00;;;1.50;;
3006;SDS011;1513;47.650;10.720;2023-05-10T13:28:13;2.60;;;1.77;;
3006;SDS011;1513;47.650;10.720;2023-05-10T13:30:40;4.40;;;1.30;;
3006;SDS011;1513;47.650;10.720;2023-05-10T13:33:06;2.70;;;2.17;;
3006;SDS011;1513;47.650;10.720;2023-05-10T13:35:32;4.47;;;2.40;;
3006;SDS011;1513;47.650;10.720;2023-05-10T13:37:58;5.17;;;2.07;;
3006;SDS011;1513;47.650;10.720;2023-05-10T13:40:25;4.37;;;2.03;;
3006;SDS011;1513;47.650;10.720;2023-05-10T13:42:51;2.40;;;1.33;;
3006;SDS011;1513;47.650;10.720;2023-05-10T13:45:18;1.87;;;1.30;;
3006;SDS011;1513;47.650;10.720;2023-05-10T13:47:44;2.53;;;1.60;;
3006;SDS011;1513;47.650;10.720;2023-05-10T13:50:11;1.60;;;0.97;;
3006;SDS011;1513;47.650;10.720;2023-05-10T13:52:37;1.03;;;1.03;;
3006;SDS011;1513;47.650;10.720;2023-05-10T13:55:03;0.70;;;0.70;;
3006;SDS011;1513;47.650;10.720;2023-05-10T13:57:30;0.53;;;0.53;;
3006;SDS011;1513;47.650;10.720;2023-05-10T13:59:56;1.37;;;1.03;;
3006;SDS011;1513;47.650;10.720;2023-05-10T14:02:22;1.10;;;1.00;;
3006;SDS011;1513;47.650;10.720;2023-05-10T14:04:49;1.70;;;0.87;;
3006;SDS011;1513;47.650;10.720;2023-05-10T14:07:15;1.33;;;1.10;;
3006;SDS011;1513;47.650;10.720;2023-05-10T14:09:42;2.00;;;1.50;;
3006;SDS011;1513;47.650;10.720;2023-05-10T14:12:09;5.03;;;2.33;;
3006;SDS011;1513;47.650;10.720;2023-05-10T14:14:35;1.37;;;1.20;;
3006;SDS011;1513;47.650;10.720;2023-05-10T14:17:02;2.80;;;1.57;;
3006;SDS011;1513;47.650;10.720;2023-05-10T14:19:28;1.60;;;1.43;;
3006;SDS011;1513;47.650;10.720;2023-05-10T14:21:57;3.70;;;2.40;;
3006;SDS011;1513;47.650;10.720;2023-05-10T14:24:23;1.00;;;1.00;;
3006;SDS011;1513;47.650;10.720;2023-05-10T14:26:50;1.47;;;1.37;;
3006;SDS011;1513;47.650;10.720;2023-05-10T14:29:19;1.60;;;1.40;;
3006;SDS011;1513;47.650;10.720;2023-05-10T14:31:45;1.07;;;0.80;;
3006;SDS011;1513;47.650;10.720;2023-05-10T14:34:12;1.10;;;1.00;;
3006;SDS011;1513;47.650;10.720;2023-05-10T14:36:38;4.43;;;1.20;;
3006;SDS011;1513;47.650;10.720;2023-05-10T14:39:05;1.70;;;0.90;;
3006;SDS011;1513;47.650;10.720;2023-05-10T14:41:31;0.80;;;0.80;;
3006;SDS011;1513;47.650;10.720;2023-05-10T14:43:58;1.30;;;1.20;;
3006;SDS011;1513;47.650;10.720;2023-05-10T14:46:24;1.40;;;1.30;;
3006;SDS011;1513;47.650;10.720;2023-05-10T14:48:50;3.57;;;2.53;;
3006;SDS011;1513;47.650;10.720;2023-05-10T14:51:16;3.33;;;2.47;;
3006;SDS011;1513;47.650;10.720;2023-05-10T14:53:47;3.47;;;2.20;;
3006;SDS011;1513;47.650;10.720;2023-05-10T14:56:14;5.37;;;2.93;;
3006;SDS011;1513;47.650;10.720;2023-05-10T14:58:40;15.53;;;7.07;;
3006;SDS011;1513;47.650;10.720;2023-05-10T15:01:06;6.10;;;4.33;;
3006;SDS011;1513;47.650;10.720;2023-05-10T15:03:33;8.27;;;3.50;;
3006;SDS011;1513;47.650;10.720;2023-05-10T15:05:59;7.23;;;4.40;;
3006;SDS011;1513;47.650;10.720;2023-05-10T15:08:25;12.60;;;6.37;;
3006;SDS011;1513;47.650;10.720;2023-05-10T15:10:52;6.90;;;3.33;;
3006;SDS011;1513;47.650;10.720;2023-05-10T15:13:20;5.47;;;3.60;;
3006;SDS011;1513;47.650;10.720;2023-05-10T15:15:46;7.23;;;4.20;;
3006;SDS011;1513;47.650;10.720;2023-05-10T15:18:13;2.67;;;1.30;;
3006;SDS011;1513;47.650;10.720;2023-05-10T15:20:39;1.57;;;1.03;;
3006;SDS011;1513;47.650;10.720;2023-05-10T15:23:06;0.90;;;0.70;;
3006;SDS011;1513;47.650;10.720;2023-05-10T15:25:32;4.37;;;0.90;;
3006;SDS011;1513;47.650;10.720;2023-05-10T15:28:03;4.63;;;1.00;;
3006;SDS011;1513;47.650;10.720;2023-05-10T15:30:30;1.03;;;0.70;;
3006;SDS011;1513;47.650;10.720;2023-05-10T15:32:56;0.87;;;0.83;;
3006;SDS011;1513;47.650;10.720;2023-05-10T15:35:22;0.70;;;0.60;;